Time;durP1;ratioP1;P1;durP2;ratioP2;P2;SDS_P1;SDS_P2;PMS_P1;PMS_P2;Temp;Humidity;BMP_temperature;BMP_pressure;BME280_temperature;BME280_humidity;BME280_pressure;Samples;Min_cycle;Max_cycle;Signal;HPM_P1;HPM_P2
2022/11/24 00:01:28;;;;;;;34.77;17.73;;;;;;;;;;5034319;28;20629;-41
2022/11/24 00:04:00;;;;;;;41.93;17.77;;;;;;;;;;5034423;28;20208;-42
2022/11/24 00:06:27;;;;;;;39.60;18.67;;;;;;;;;;5034332;28;20186;-41
2022/11/24 00:08:55;;;;;;;49.10;20.13;;;;;;;;;;5034088;28;20205;-41
2022/11/24 00:11:24;;;;;;;43.33;19.20;;;;;;;;;;5034239;28;20228;-41
2022/11/24 00:13:52;;;;;;;39.50;18.27;;;;;;;;;;5034269;28;20216;-41
2022/11/24 00:16:30;;;;;;;37.57;17.03;;;;;;;;;;5033988;28;20243;-41
2022/11/24 00:18:58;;;;;;;37.77;17.03;;;;;;;;;;5034189;28;20206;-42
2022/11/24 00:21:26;;;;;;;37.83;16.47;;;;;;;;;;5034015;28;20213;-42
2022/11/24 00:23:54;;;;;;;33.97;16.33;;;;;;;;;;5033941;28;20251;-41
2022/11/24 00:26:28;;;;;;;34.43;16.10;;;;;;;;;;5034020;28;20306;-41
2022/11/24 00:28:58;;;;;;;36.13;16.43;;;;;;;;;;5034027;28;20199;-41
2022/11/24 00:31:36;;;;;;;30.70;14.93;;;;;;;;;;5053662;28;20720;-41
2022/11/24 00:34:08;;;;;;;30.17;15.60;;;;;;;;;;5055294;28;20199;-41
2022/11/24 00:36:36;;;;;;;35.90;15.60;;;;;;;;;;5055727;28;20196;-41
2022/11/24 00:39:05;;;;;;;31.07;14.07;;;;;;;;;;5054599;28;20258;-41
2022/11/24 00:41:32;;;;;;;31.03;14.30;;;;;;;;;;5055254;28;20274;-41
2022/11/24 00:43:59;;;;;;;29.17;13.73;;;;;;;;;;5055221;28;20621;-41
2022/11/24 00:46:26;;;;;;;31.30;13.47;;;;;;;;;;5055223;28;20651;-42
2022/11/24 00:48:54;;;;;;;31.27;13.73;;;;;;;;;;5054943;28;20640;-42
2022/11/24 00:51:25;;;;;;;26.40;13.00;;;;;;;;;;5054617;28;20220;-41
2022/11/24 00:53:54;;;;;;;29.60;13.43;;;;;;;;;;5055632;28;20223;-40
2022/11/24 00:56:21;;;;;;;29.23;13.67;;;;;;;;;;5054889;28;20624;-42
2022/11/24 00:58:49;;;;;;;25.57;12.73;;;;;;;;;;5054986;28;20208;-42
2022/11/24 01:01:19;;;;;;;25.67;12.33;;;;;;;;;;5055396;28;20262;-42
2022/11/24 01:03:46;;;;;;;27.33;12.20;;;;;;;;;;5055141;28;20204;-41
2022/11/24 01:06:16;;;;;;;28.07;12.27;;;;;;;;;;5055152;28;20209;-41
2022/11/24 01:08:43;;;;;;;24.33;11.53;;;;;;;;;;5055210;28;20215;-41
2022/11/24 01:11:13;;;;;;;27.00;11.27;;;;;;;;;;5054642;28;20223;-42
2022/11/24 01:13:41;;;;;;;23.67;11.10;;;;;;;;;;5054738;28;20192;-41
2022/11/24 01:16:23;;;;;;;26.33;12.57;;;;;;;;;;5055338;28;20225;-42
2022/11/24 01:18:51;;;;;;;26.27;11.87;;;;;;;;;;5054805;28;20216;-40
2022/11/24 01:21:18;;;;;;;23.00;11.00;;;;;;;;;;5054886;28;20199;-41
2022/11/24 01:23:45;;;;;;;25.17;11.63;;;;;;;;;;5054494;28;20322;-41
2022/11/24 01:26:15;;;;;;;26.30;11.63;;;;;;;;;;5054633;28;20279;-40
2022/11/24 01:28:42;;;;;;;26.33;12.23;;;;;;;;;;5054734;28;20538;-41
2022/11/24 01:31:14;;;;;;;23.77;11.00;;;;;;;;;;5054606;28;20230;-41
2022/11/24 01:33:41;;;;;;;23.87;11.63;;;;;;;;;;5054505;28;20545;-41
2022/11/24 01:36:09;;;;;;;24.40;11.30;;;;;;;;;;5054712;28;20204;-41
2022/11/24 01:38:36;;;;;;;24.03;11.23;;;;;;;;;;5054714;28;20203;-40
2022/11/24 01:41:07;;;;;;;25.53;11.30;;;;;;;;;;5054710;28;20212;-41
2022/11/24 01:43:35;;;;;;;23.30;11.43;;;;;;;;;;5055164;28;20297;-41
2022/11/24 01:46:21;;;;;;;22.13;11.57;;;;;;;;;;5054887;28;20210;-42
2022/11/24 01:49:01;;;;;;;24.97;11.70;;;;;;;;;;5054513;28;20538;-41
2022/11/24 01:51:29;;;;;;;29.53;12.80;;;;;;;;;;5054004;28;20228;-41
2022/11/24 01:54:00;;;;;;;24.00;11.60;;;;;;;;;;5054447;28;20253;-41
2022/11/24 01:56:28;;;;;;;28.73;12.83;;;;;;;;;;5054556;28;20189;-41
2022/11/24 01:58:58;;;;;;;28.33;11.97;;;;;;;;;;5053694;28;20262;-41
2022/11/24 02:01:25;;;;;;;24.60;12.33;;;;;;;;;;5053972;28;20204;-41
2022/11/24 02:03:52;;;;;;;30.60;13.73;;;;;;;;;;5058445;28;20273;-46
2022/11/24 02:06:25;;;;;;;29.23;12.63;;;;;;;;;;5058192;28;20637;-41
2022/11/24 02:08:59;;;;;;;31.63;13.87;;;;;;;;;;5057656;28;20188;-42
2022/11/24 02:11:29;;;;;;;35.37;14.17;;;;;;;;;;5057552;28;20247;-42
2022/11/24 02:13:57;;;;;;;30.60;14.73;;;;;;;;;;5057284;28;20200;-41
2022/11/24 02:16:24;;;;;;;31.80;13.57;;;;;;;;;;5057270;28;20204;-42
2022/11/24 02:18:51;;;;;;;33.83;13.77;;;;;;;;;;5058162;28;20208;-41
2022/11/24 02:21:18;;;;;;;26.50;12.20;;;;;;;;;;5058161;28;20212;-41
2022/11/24 02:23:45;;;;;;;32.70;13.67;;;;;;;;;;5058028;28;20541;-42
2022/11/24 02:26:40;;;;;;;29.30;12.57;;;;;;;;;;5057781;28;20196;-41
2022/11/24 02:29:09;;;;;;;33.43;14.13;;;;;;;;;;5057721;28;20204;-43
2022/11/24 02:31:37;;;;;;;32.10;13.00;;;;;;;;;;5057791;28;20235;-42
2022/11/24 02:34:04;;;;;;;36.10;14.77;;;;;;;;;;5057252;28;20199;-41
2022/11/24 02:36:31;;;;;;;35.13;14.47;;;;;;;;;;5057724;28;20219;-41
2022/11/24 02:38:58;;;;;;;34.17;12.63;;;;;;;;;;5057716;28;20211;-40
2022/11/24 02:41:26;;;;;;;33.07;13.20;;;;;;;;;;5058268;28;20537;-42
2022/11/24 02:43:55;;;;;;;33.50;15.30;;;;;;;;;;5057310;28;20640;-41
2022/11/24 02:46:22;;;;;;;29.10;12.70;;;;;;;;;;5056826;28;20610;-42
2022/11/24 02:48:49;;;;;;;31.30;13.13;;;;;;;;;;5057731;28;20204;-41
2022/11/24 02:51:16;;;;;;;168.37;44.37;;;;;;;;;;5057372;28;20571;-40
2022/11/24 02:53:43;;;;;;;226.73;56.27;;;;;;;;;;5056278;28;20200;-41
2022/11/24 02:56:10;;;;;;;63.70;21.40;;;;;;;;;;5057150;28;20690;-42
2022/11/24 02:58:37;;;;;;;127.97;37.10;;;;;;;;;;5057401;28;20540;-41
2022/11/24 03:01:04;;;;;;;36.37;14.13;;;;;;;;;;5057238;28;20273;-41
2022/11/24 03:03:31;;;;;;;31.53;12.57;;;;;;;;;;5057264;28;20220;-41
2022/11/24 03:05:58;;;;;;;29.97;13.43;;;;;;;;;;5057220;28;20216;-41
2022/11/24 03:08:25;;;;;;;30.87;13.13;;;;;;;;;;5057805;28;20219;-42
2022/11/24 03:10:53;;;;;;;52.53;18.80;;;;;;;;;;5057390;28;20240;-40
2022/11/24 03:13:20;;;;;;;93.20;34.37;;;;;;;;;;5056358;28;20231;-40
2022/11/24 03:15:47;;;;;;;128.67;47.83;;;;;;;;;;5057406;28;20208;-41
2022/11/24 03:18:14;;;;;;;47.67;19.33;;;;;;;;;;5057020;28;20204;-41
2022/11/24 03:20:41;;;;;;;36.53;13.07;;;;;;;;;;5056646;28;20277;-40
2022/11/24 03:23:09;;;;;;;49.30;18.40;;;;;;;;;;5057770;28;20211;-41
2022/11/24 03:25:35;;;;;;;67.80;25.57;;;;;;;;;;5056638;28;20200;-41
2022/11/24 03:28:03;;;;;;;40.10;13.27;;;;;;;;;;5056971;28;20200;-41
2022/11/24 03:30:30;;;;;;;30.13;12.47;;;;;;;;;;5056486;28;20266;-40
2022/11/24 03:32:57;;;;;;;32.17;13.00;;;;;;;;;;5056311;28;20285;-41
2022/11/24 03:35:24;;;;;;;31.27;12.67;;;;;;;;;;5056989;28;20208;-40
2022/11/24 03:37:51;;;;;;;27.10;10.43;;;;;;;;;;5056454;28;20207;-41
2022/11/24 03:40:18;;;;;;;31.90;11.30;;;;;;;;;;5056512;28;20208;-41
2022/11/24 03:42:45;;;;;;;25.70;9.70;;;;;;;;;;5056608;28;20220;-42
2022/11/24 03:45:13;;;;;;;25.03;10.50;;;;;;;;;;5056471;28;20204;-41
2022/11/24 03:48:00;;;;;;;24.63;9.77;;;;;;;;;;5056603;28;20214;-41
2022/11/24 03:50:27;;;;;;;30.83;11.30;;;;;;;;;;5056491;28;20215;-41
2022/11/24 03:52:54;;;;;;;26.40;9.73;;;;;;;;;;5056269;28;20228;-41
2022/11/24 03:55:21;;;;;;;27.23;9.53;;;;;;;;;;5056295;28;20214;-41
2022/11/24 03:57:48;;;;;;;30.57;10.57;;;;;;;;;;5056274;28;20204;-41
2022/11/24 04:00:15;;;;;;;34.60;11.23;;;;;;;;;;5056129;28;20200;-42
2022/11/24 04:02:42;;;;;;;27.57;10.20;;;;;;;;;;5056506;28;20553;-41
2022/11/24 04:05:09;;;;;;;34.60;10.43;;;;;;;;;;5056165;28;20200;-41
2022/11/24 04:07:36;;;;;;;25.00;9.73;;;;;;;;;;5056062;28;20201;-41
2022/11/24 04:10:04;;;;;;;26.83;9.17;;;;;;;;;;5056052;28;20240;-41
2022/11/24 04:12:43;;;;;;;20.10;8.47;;;;;;;;;;5055896;28;20239;-41
2022/11/24 04:15:12;;;;;;;22.63;8.13;;;;;;;;;;5056127;28;20199;-40
2022/11/24 04:17:39;;;;;;;16.97;7.37;;;;;;;;;;5055848;28;20203;-40
2022/11/24 04:20:07;;;;;;;25.53;8.37;;;;;;;;;;5056012;28;20196;-41
2022/11/24 04:22:34;;;;;;;22.00;8.23;;;;;;;;;;5055839;28;20208;-41
2022/11/24 04:25:02;;;;;;;26.03;8.47;;;;;;;;;;5054993;28;20204;-41
2022/11/24 04:27:31;;;;;;;26.97;9.43;;;;;;;;;;5055065;28;20204;-41
2022/11/24 04:29:58;;;;;;;26.83;8.60;;;;;;;;;;5054884;28;20208;-42
2022/11/24 04:32:25;;;;;;;21.93;8.47;;;;;;;;;;5055532;28;20228;-41
2022/11/24 04:34:52;;;;;;;19.07;7.63;;;;;;;;;;5055796;28;20299;-41
2022/11/24 04:37:19;;;;;;;27.43;8.73;;;;;;;;;;5055201;28;20199;-42
2022/11/24 04:39:46;;;;;;;26.10;8.03;;;;;;;;;;5055123;28;20203;-41
2022/11/24 04:42:13;;;;;;;21.33;7.80;;;;;;;;;;5055175;28;20219;-41
2022/11/24 04:44:40;;;;;;;27.50;9.37;;;;;;;;;;5055157;28;20691;-42
2022/11/24 04:47:14;;;;;;;26.57;9.53;;;;;;;;;;5053907;28;20204;-41
2022/11/24 04:49:41;;;;;;;27.33;9.03;;;;;;;;;;5054318;28;20629;-41
2022/11/24 04:52:08;;;;;;;25.60;9.63;;;;;;;;;;5055088;28;20547;-42
2022/11/24 04:54:35;;;;;;;29.03;9.83;;;;;;;;;;5054567;28;20294;-44
2022/11/24 04:57:02;;;;;;;21.47;8.93;;;;;;;;;;5054818;28;20212;-41
2022/11/24 04:59:29;;;;;;;30.03;9.57;;;;;;;;;;5050678;28;20622;-43
2022/11/24 05:01:56;;;;;;;26.57;9.40;;;;;;;;;;5049289;28;20235;-41
2022/11/24 05:04:23;;;;;;;26.13;9.63;;;;;;;;;;5053197;28;20224;-41
2022/11/24 05:06:50;;;;;;;30.30;10.50;;;;;;;;;;5052949;28;20534;-41
2022/11/24 05:09:17;;;;;;;31.60;11.90;;;;;;;;;;5054069;28;20246;-41
2022/11/24 05:11:44;;;;;;;37.30;13.57;;;;;;;;;;5053777;28;20521;-42
2022/11/24 05:14:11;;;;;;;55.03;18.23;;;;;;;;;;5054033;28;20239;-41
2022/11/24 05:16:38;;;;;;;51.00;17.43;;;;;;;;;;5052743;28;20216;-49
2022/11/24 05:19:05;;;;;;;53.80;17.33;;;;;;;;;;5054075;28;20293;-41
2022/11/24 05:21:32;;;;;;;44.43;14.93;;;;;;;;;;5033942;28;20852;-41
2022/11/24 05:23:59;;;;;;;26.30;10.20;;;;;;;;;;5042342;28;20237;-42
2022/11/24 05:26:26;;;;;;;29.13;10.87;;;;;;;;;;5053656;28;20374;-41
2022/11/24 05:28:53;;;;;;;19.43;8.13;;;;;;;;;;5053764;28;20251;-41
2022/11/24 05:31:20;;;;;;;26.93;9.37;;;;;;;;;;5053269;28;20608;-41
2022/11/24 05:33:47;;;;;;;28.27;10.87;;;;;;;;;;5053606;28;20676;-41
2022/11/24 05:39:00;;;;;;;31.20;11.47;;;;;;;;;;5058300;28;20302;-42
2022/11/24 05:41:27;;;;;;;26.13;11.33;;;;;;;;;;5057737;28;20227;-40
2022/11/24 05:43:54;;;;;;;28.43;10.83;;;;;;;;;;5057732;28;20710;-41
2022/11/24 05:46:21;;;;;;;30.30;11.23;;;;;;;;;;5057268;28;20228;-42
2022/11/24 05:48:48;;;;;;;45.03;16.87;;;;;;;;;;5057662;28;20250;-41
2022/11/24 05:51:15;;;;;;;40.37;15.20;;;;;;;;;;5057077;28;20838;-44
2022/11/24 05:53:42;;;;;;;42.13;14.60;;;;;;;;;;5044621;28;20235;-42
2022/11/24 05:56:09;;;;;;;38.07;13.10;;;;;;;;;;5057393;28;20224;-41
2022/11/24 05:58:36;;;;;;;30.33;11.37;;;;;;;;;;5053077;28;20275;-42
2022/11/24 06:01:06;;;;;;;37.27;12.97;;;;;;;;;;5050670;28;20220;-41
2022/11/24 06:03:33;;;;;;;31.80;11.67;;;;;;;;;;5056761;28;20586;-44
2022/11/24 06:06:00;;;;;;;28.57;12.27;;;;;;;;;;5056023;28;20278;-42
2022/11/24 06:08:27;;;;;;;27.97;12.67;;;;;;;;;;5057061;28;20731;-41
2022/11/24 06:11:15;;;;;;;33.20;13.63;;;;;;;;;;5057396;28;20254;-41
2022/11/24 06:13:44;;;;;;;35.77;13.07;;;;;;;;;;5056786;28;20239;-47
2022/11/24 06:16:11;;;;;;;39.87;16.07;;;;;;;;;;5043697;28;20633;-43
2022/11/24 06:18:38;;;;;;;42.67;17.97;;;;;;;;;;5036825;28;20233;-49
2022/11/24 06:21:06;;;;;;;41.13;15.53;;;;;;;;;;5037217;28;20224;-42
2022/11/24 06:23:38;;;;;;;31.23;11.03;;;;;;;;;;5036730;28;20323;-42
2022/11/24 06:26:05;;;;;;;25.87;9.90;;;;;;;;;;5037251;28;20665;-42
2022/11/24 06:28:32;;;;;;;29.47;10.60;;;;;;;;;;5048670;28;20723;-41
2022/11/24 06:31:03;;;;;;;24.83;9.43;;;;;;;;;;5076739;28;20227;-43
2022/11/24 06:33:34;;;;;;;26.90;10.73;;;;;;;;;;5076533;28;20235;-42
2022/11/24 06:36:05;;;;;;;21.57;9.83;;;;;;;;;;5077449;28;20207;-41
2022/11/24 06:38:34;;;;;;;28.70;10.13;;;;;;;;;;5077319;28;20207;-41
2022/11/24 06:41:06;;;;;;;25.87;11.30;;;;;;;;;;5077475;28;20229;-42
2022/11/24 06:43:33;;;;;;;29.70;12.00;;;;;;;;;;5077214;28;20535;-42
2022/11/24 06:46:01;;;;;;;38.13;13.63;;;;;;;;;;5077450;28;20225;-43
2022/11/24 06:48:29;;;;;;;38.83;16.97;;;;;;;;;;5076259;28;20203;-42
2022/11/24 06:51:01;;;;;;;33.43;14.83;;;;;;;;;;5077053;28;20199;-41
2022/11/24 06:53:38;;;;;;;43.20;16.07;;;;;;;;;;5077234;28;20249;-43
2022/11/24 06:56:07;;;;;;;24.67;11.23;;;;;;;;;;5077190;28;20203;-43
2022/11/24 06:58:45;;;;;;;28.07;11.80;;;;;;;;;;5077265;28;20608;-43
2022/11/24 07:01:20;;;;;;;27.83;12.30;;;;;;;;;;5077014;28;20234;-41
2022/11/24 07:03:48;;;;;;;27.63;10.37;;;;;;;;;;5077077;28;20227;-42
2022/11/24 07:06:16;;;;;;;24.20;10.60;;;;;;;;;;5077350;28;20629;-42
2022/11/24 07:08:43;;;;;;;32.37;12.13;;;;;;;;;;5076866;28;20203;-43
2022/11/24 07:11:16;;;;;;;27.10;10.73;;;;;;;;;;5077359;28;20191;-42
2022/11/24 07:13:43;;;;;;;29.13;11.27;;;;;;;;;;5077056;28;20247;-42
2022/11/24 07:16:21;;;;;;;27.00;11.17;;;;;;;;;;5077019;28;20217;-42
2022/11/24 07:18:52;;;;;;;25.17;11.33;;;;;;;;;;5077151;28;20227;-42
2022/11/24 07:21:21;;;;;;;25.00;11.60;;;;;;;;;;5076860;28;20208;-42
2022/11/24 07:23:52;;;;;;;31.50;13.23;;;;;;;;;;5076992;28;20203;-41
2022/11/24 07:26:20;;;;;;;29.47;11.73;;;;;;;;;;5076653;28;20633;-44
2022/11/24 07:28:47;;;;;;;35.00;13.00;;;;;;;;;;5076526;28;20569;-41
2022/11/24 07:31:17;;;;;;;29.80;12.87;;;;;;;;;;5076913;28;20269;-42
2022/11/24 07:33:48;;;;;;;30.33;11.47;;;;;;;;;;5076973;28;20306;-41
2022/11/24 07:36:16;;;;;;;32.73;12.93;;;;;;;;;;5076734;28;20206;-41
2022/11/24 07:38:42;;;;;;;32.80;13.00;;;;;;;;;;5076571;28;20276;-42
2022/11/24 07:41:11;;;;;;;31.40;12.73;;;;;;;;;;5076256;28;20200;-41
2022/11/24 07:43:38;;;;;;;39.40;15.03;;;;;;;;;;5076482;28;20299;-41
2022/11/24 07:46:07;;;;;;;32.97;12.83;;;;;;;;;;5075310;28;20199;-41
2022/11/24 07:48:34;;;;;;;29.93;12.00;;;;;;;;;;5076175;28;20294;-41
2022/11/24 07:51:02;;;;;;;26.87;11.57;;;;;;;;;;5076173;28;20248;-41
2022/11/24 07:53:29;;;;;;;26.70;11.10;;;;;;;;;;5076271;28;20243;-42
2022/11/24 07:56:00;;;;;;;27.13;11.23;;;;;;;;;;5075928;28;20195;-41
2022/11/24 07:58:29;;;;;;;25.77;11.00;;;;;;;;;;5076040;28;20539;-42
2022/11/24 08:01:00;;;;;;;30.23;11.43;;;;;;;;;;5075623;28;20211;-42
2022/11/24 08:03:27;;;;;;;29.73;12.20;;;;;;;;;;5075103;28;20231;-41
2022/11/24 08:05:55;;;;;;;27.23;10.57;;;;;;;;;;5076052;28;20222;-41
2022/11/24 08:08:42;;;;;;;31.40;12.73;;;;;;;;;;5075534;28;20643;-42
2022/11/24 08:11:11;;;;;;;26.03;13.23;;;;;;;;;;5076306;28;20207;-41
2022/11/24 08:13:38;;;;;;;29.80;12.53;;;;;;;;;;5075762;28;20664;-41
2022/11/24 08:16:08;;;;;;;26.63;11.80;;;;;;;;;;5075909;28;20213;-42
2022/11/24 08:18:36;;;;;;;33.30;13.47;;;;;;;;;;5075752;28;20218;-42
2022/11/24 08:21:04;;;;;;;33.80;13.13;;;;;;;;;;5075464;28;20200;-41
2022/11/24 08:23:31;;;;;;;33.63;13.70;;;;;;;;;;5075782;28;20203;-42
2022/11/24 08:26:03;;;;;;;39.10;14.80;;;;;;;;;;5075552;28;20199;-41
2022/11/24 08:28:31;;;;;;;30.67;13.93;;;;;;;;;;5075741;28;20270;-42
2022/11/24 08:31:07;;;;;;;31.77;13.53;;;;;;;;;;5075313;28;20207;-41
2022/11/24 08:33:34;;;;;;;32.00;12.97;;;;;;;;;;5075732;28;20222;-41
2022/11/24 08:36:07;;;;;;;31.33;12.60;;;;;;;;;;5075388;28;20199;-42
2022/11/24 08:38:34;;;;;;;34.90;15.30;;;;;;;;;;5075205;28;20684;-41
2022/11/24 08:41:03;;;;;;;33.77;13.20;;;;;;;;;;5075494;28;20199;-41
2022/11/24 08:43:30;;;;;;;35.83;13.30;;;;;;;;;;5075090;28;20272;-42
2022/11/24 08:46:02;;;;;;;29.87;12.70;;;;;;;;;;5075366;28;20215;-42
2022/11/24 08:48:29;;;;;;;31.20;13.30;;;;;;;;;;5075508;28;20207;-43
2022/11/24 08:50:57;;;;;;;31.60;12.60;;;;;;;;;;5075251;28;20203;-41
2022/11/24 08:53:24;;;;;;;27.37;11.17;;;;;;;;;;5075270;28;20254;-41
2022/11/24 08:55:52;;;;;;;30.63;12.27;;;;;;;;;;5075081;28;20268;-42
2022/11/24 08:58:18;;;;;;;30.03;12.13;;;;;;;;;;5074342;28;20199;-41
2022/11/24 09:00:45;;;;;;;32.47;12.40;;;;;;;;;;5075439;28;20199;-44
2022/11/24 09:03:13;;;;;;;27.53;11.07;;;;;;;;;;5074842;28;20713;-42
2022/11/24 09:05:40;;;;;;;23.83;11.53;;;;;;;;;;5074915;28;20219;-42
2022/11/24 09:08:18;;;;;;;27.90;11.77;;;;;;;;;;5075048;28;20573;-41
2022/11/24 09:10:45;;;;;;;26.50;10.97;;;;;;;;;;5073761;28;20299;-41
2022/11/24 09:13:12;;;;;;;25.20;11.50;;;;;;;;;;5075545;28;20242;-43
2022/11/24 09:15:39;;;;;;;28.33;10.67;;;;;;;;;;5074721;28;20622;-42
2022/11/24 09:18:06;;;;;;;28.60;11.63;;;;;;;;;;5074839;28;20199;-41
2022/11/24 09:20:33;;;;;;;29.70;11.40;;;;;;;;;;5074719;28;20950;-41
2022/11/24 09:23:00;;;;;;;29.20;11.63;;;;;;;;;;5074952;28;20227;-41
2022/11/24 09:25:27;;;;;;;29.37;11.97;;;;;;;;;;5074916;28;20206;-41
2022/11/24 09:27:55;;;;;;;29.77;11.60;;;;;;;;;;5074685;28;20245;-41
2022/11/24 09:30:22;;;;;;;33.07;13.60;;;;;;;;;;5074816;28;20203;-41
2022/11/24 09:32:49;;;;;;;46.77;17.50;;;;;;;;;;5074712;28;20207;-41
2022/11/24 09:35:16;;;;;;;43.40;15.33;;;;;;;;;;5074691;28;20650;-42
2022/11/24 09:37:44;;;;;;;38.40;16.17;;;;;;;;;;5074711;28;20207;-41
2022/11/24 09:40:13;;;;;;;32.97;14.93;;;;;;;;;;5075053;28;20502;-41
2022/11/24 09:42:57;;;;;;;37.23;15.70;;;;;;;;;;5074638;28;20536;-42
2022/11/24 09:45:39;;;;;;;33.47;14.50;;;;;;;;;;5074134;28;20355;-41
2022/11/24 09:48:35;;;;;;;30.90;14.60;;;;;;;;;;5074412;28;20199;-41
2022/11/24 09:51:03;;;;;;;32.47;14.70;;;;;;;;;;5073914;28;20194;-41
2022/11/24 09:53:34;;;;;;;34.07;14.50;;;;;;;;;;5074629;28;20219;-42
2022/11/24 09:56:11;;;;;;;30.17;12.60;;;;;;;;;;5074541;28;20187;-41
2022/11/24 09:58:47;;;;;;;26.17;12.13;;;;;;;;;;5074624;28;20193;-41
2022/11/24 10:01:17;;;;;;;29.83;12.40;;;;;;;;;;5073872;28;20203;-41
2022/11/24 10:03:49;;;;;;;27.53;12.83;;;;;;;;;;5074478;28;20218;-42
2022/11/24 10:06:23;;;;;;;29.93;12.83;;;;;;;;;;5074573;28;20188;-41
2022/11/24 10:09:06;;;;;;;28.60;12.47;;;;;;;;;;5074388;28;20219;-41
2022/11/24 10:11:58;;;;;;;30.30;13.17;;;;;;;;;;5073829;28;20199;-41
2022/11/24 10:14:39;;;;;;;32.00;12.83;;;;;;;;;;5073228;28;20269;-42
2022/11/24 10:17:36;;;;;;;28.33;12.60;;;;;;;;;;5074142;28;20624;-42
2022/11/24 10:20:16;;;;;;;28.63;12.80;;;;;;;;;;5073632;28;20238;-41
2022/11/24 10:23:02;;;;;;;30.03;12.27;;;;;;;;;;5074004;28;20702;-41
2022/11/24 10:25:47;;;;;;;25.97;12.47;;;;;;;;;;5077901;28;20256;-42
2022/11/24 10:28:15;;;;;;;27.03;11.57;;;;;;;;;;5078562;28;20199;-41
2022/11/24 10:30:42;;;;;;;25.63;11.37;;;;;;;;;;5078094;28;20203;-42
2022/11/24 10:33:18;;;;;;;23.40;11.30;;;;;;;;;;5077479;28;20298;-41
2022/11/24 10:35:54;;;;;;;27.27;11.93;;;;;;;;;;5077708;28;20583;-42
2022/11/24 10:38:53;;;;;;;26.33;11.73;;;;;;;;;;5078031;28;20530;-42
2022/11/24 10:41:24;;;;;;;27.20;11.83;;;;;;;;;;5039420;28;20204;-42
2022/11/24 10:43:51;;;;;;;21.77;10.70;;;;;;;;;;5055953;28;20199;-42
2022/11/24 10:46:27;;;;;;;28.00;12.63;;;;;;;;;;5055850;28;20290;-42
2022/11/24 10:48:59;;;;;;;23.17;11.03;;;;;;;;;;5055801;28;20242;-42
2022/11/24 10:52:11;;;;;;;28.53;12.60;;;;;;;;;;5056184;28;20222;-42
2022/11/24 10:54:59;;;;;;;35.27;13.50;;;;;;;;;;5042086;28;20238;-41
2022/11/24 10:57:31;;;;;;;24.20;11.23;;;;;;;;;;5055637;28;20692;-41
2022/11/24 10:59:59;;;;;;;21.73;10.10;;;;;;;;;;5055576;28;20678;-41
2022/11/24 11:02:37;;;;;;;25.47;11.53;;;;;;;;;;5055514;28;20302;-41
2022/11/24 11:05:26;;;;;;;24.50;12.07;;;;;;;;;;5055635;28;20215;-43
2022/11/24 11:08:18;;;;;;;27.17;12.73;;;;;;;;;;5055420;28;20200;-41
2022/11/24 11:10:48;;;;;;;31.70;12.93;;;;;;;;;;5055246;28;20236;-41
2022/11/24 11:13:23;;;;;;;30.90;14.17;;;;;;;;;;5055213;28;20257;-41
2022/11/24 11:15:50;;;;;;;27.77;12.30;;;;;;;;;;5055524;28;20298;-42
2022/11/24 11:18:18;;;;;;;28.43;12.60;;;;;;;;;;5056741;28;20285;-42
2022/11/24 11:20:51;;;;;;;29.23;14.30;;;;;;;;;;5057115;28;20546;-41
2022/11/24 11:23:36;;;;;;;27.10;13.03;;;;;;;;;;5056744;28;20617;-41
2022/11/24 11:26:20;;;;;;;29.20;12.13;;;;;;;;;;5056098;28;20203;-42
2022/11/24 11:29:00;;;;;;;32.10;12.90;;;;;;;;;;5057593;28;20203;-42
2022/11/24 11:32:14;;;;;;;33.20;12.37;;;;;;;;;;5056456;28;20207;-41
2022/11/24 11:35:01;;;;;;;36.97;13.83;;;;;;;;;;5055739;28;20303;-42
2022/11/24 11:37:31;;;;;;;30.13;13.27;;;;;;;;;;5056629;28;20214;-41
2022/11/24 11:39:58;;;;;;;23.17;10.57;;;;;;;;;;5056944;28;20208;-41
2022/11/24 11:42:32;;;;;;;25.53;11.57;;;;;;;;;;5055609;28;20207;-41
2022/11/24 11:45:34;;;;;;;22.17;10.57;;;;;;;;;;5056169;28;20604;-41
2022/11/24 11:48:01;;;;;;;22.90;10.97;;;;;;;;;;5056794;28;20215;-42
2022/11/24 11:50:39;;;;;;;26.47;11.33;;;;;;;;;;5056465;28;20591;-41
2022/11/24 11:53:33;;;;;;;26.23;10.70;;;;;;;;;;5055890;28;20584;-41
2022/11/24 11:56:20;;;;;;;22.67;10.33;;;;;;;;;;5056370;28;20196;-42
2022/11/24 11:59:00;;;;;;;26.90;12.03;;;;;;;;;;5055544;28;20203;-41
2022/11/24 12:01:59;;;;;;;26.33;10.97;;;;;;;;;;5055211;28;20199;-41
2022/11/24 12:04:47;;;;;;;23.90;11.37;;;;;;;;;;5055523;28;20200;-41
2022/11/24 12:07:36;;;;;;;26.93;11.63;;;;;;;;;;5055368;28;20571;-42
2022/11/24 12:10:09;;;;;;;25.37;10.37;;;;;;;;;;5065263;28;20239;-42
2022/11/24 12:13:21;;;;;;;22.17;10.77;;;;;;;;;;5075789;28;20571;-41
2022/11/24 12:15:50;;;;;;;25.13;11.23;;;;;;;;;;5075803;28;20230;-42
2022/11/24 12:18:26;;;;;;;23.17;10.77;;;;;;;;;;5075840;28;20195;-41
2022/11/24 12:21:18;;;;;;;21.37;10.37;;;;;;;;;;5075709;28;20218;-42
2022/11/24 12:24:03;;;;;;;26.00;11.50;;;;;;;;;;5075901;28;20256;-41
2022/11/24 12:26:33;;;;;;;24.50;10.00;;;;;;;;;;5074718;28;20214;-41
2022/11/24 12:29:26;;;;;;;21.83;10.93;;;;;;;;;;5074645;28;20210;-42
2022/11/24 12:32:18;;;;;;;24.23;10.70;;;;;;;;;;5075422;28;20548;-41
2022/11/24 12:35:07;;;;;;;21.63;11.43;;;;;;;;;;5074636;28;20234;-41
2022/11/24 12:37:50;;;;;;;18.43;10.03;;;;;;;;;;5075551;28;20210;-42
2022/11/24 12:40:38;;;;;;;25.53;10.50;;;;;;;;;;5075677;28;20257;-41
2022/11/24 12:43:34;;;;;;;23.77;11.27;;;;;;;;;;5075350;28;20214;-42
2022/11/24 12:46:16;;;;;;;24.30;10.97;;;;;;;;;;5074831;28;20199;-42
2022/11/24 12:48:46;;;;;;;22.57;10.07;;;;;;;;;;5075533;28;20203;-41
2022/11/24 12:51:17;;;;;;;24.80;11.33;;;;;;;;;;5075099;28;20199;-42
2022/11/24 12:53:48;;;;;;;30.37;12.70;;;;;;;;;;5074975;28;20218;-41
2022/11/24 12:56:22;;;;;;;22.83;10.63;;;;;;;;;;5065116;28;20195;-41
2022/11/24 12:59:10;;;;;;;22.87;10.73;;;;;;;;;;5055130;28;20215;-42
2022/11/24 13:02:10;;;;;;;21.33;10.70;;;;;;;;;;5054946;28;20204;-44
2022/11/24 13:05:04;;;;;;;25.23;11.37;;;;;;;;;;5029783;28;20219;-41
2022/11/24 13:07:44;;;;;;;24.27;11.37;;;;;;;;;;5050643;28;20215;-42
2022/11/24 13:10:23;;;;;;;24.17;11.20;;;;;;;;;;5035063;28;20229;-42
2022/11/24 13:13:11;;;;;;;25.03;10.43;;;;;;;;;;5034817;28;20209;-40
2022/11/24 13:15:53;;;;;;;22.87;11.00;;;;;;;;;;5034071;28;20231;-40
2022/11/24 13:18:42;;;;;;;22.60;11.10;;;;;;;;;;5034809;28;20219;-41
2022/11/24 13:21:29;;;;;;;27.90;12.80;;;;;;;;;;5034986;28;20209;-41
2022/11/24 13:24:05;;;;;;;24.77;12.53;;;;;;;;;;5034349;28;20641;-42
2022/11/24 13:26:37;;;;;;;24.57;11.33;;;;;;;;;;5034853;28;20208;-41
2022/11/24 13:29:25;;;;;;;21.03;11.17;;;;;;;;;;5035697;28;20185;-42
2022/11/24 13:31:54;;;;;;;22.70;11.27;;;;;;;;;;5035001;28;20546;-41
2022/11/24 13:34:53;;;;;;;27.47;13.10;;;;;;;;;;5034687;28;20235;-42
2022/11/24 13:37:27;;;;;;;40.67;17.23;;;;;;;;;;5040482;28;20211;-44
2022/11/24 13:40:21;;;;;;;37.30;17.67;;;;;;;;;;5047889;28;20621;-42
2022/11/24 13:42:55;;;;;;;53.20;26.03;;;;;;;;;;5036027;28;20624;-41
2022/11/24 13:45:40;;;;;;;69.93;32.53;;;;;;;;;;5043394;28;20216;-44
2022/11/24 13:48:19;;;;;;;42.47;18.60;;;;;;;;;;5041275;28;20228;-49
2022/11/24 13:50:51;;;;;;;42.67;18.40;;;;;;;;;;5040967;28;20328;-42
2022/11/24 13:53:31;;;;;;;44.17;19.33;;;;;;;;;;5045680;28;20212;-47
2022/11/24 13:56:01;;;;;;;38.47;17.23;;;;;;;;;;5043081;28;20315;-44
2022/11/24 13:58:43;;;;;;;36.30;16.73;;;;;;;;;;5050018;28;20230;-44
2022/11/24 14:01:19;;;;;;;36.07;16.47;;;;;;;;;;5047602;28;20626;-44
2022/11/24 14:04:08;;;;;;;41.20;18.37;;;;;;;;;;5056086;28;20231;-46
2022/11/24 14:06:58;;;;;;;39.90;16.63;;;;;;;;;;5056301;28;20234;-48
2022/11/24 14:09:42;;;;;;;35.30;16.13;;;;;;;;;;5056496;28;20726;-46
2022/11/24 14:12:23;;;;;;;35.47;16.00;;;;;;;;;;5056871;28;20223;-52
2022/11/24 14:14:51;;;;;;;34.80;15.10;;;;;;;;;;5056285;28;20245;-46
2022/11/24 14:17:21;;;;;;;35.87;16.90;;;;;;;;;;5038228;28;20281;-45
2022/11/24 14:19:53;;;;;;;37.23;16.67;;;;;;;;;;5056014;28;20220;-44
2022/11/24 14:22:29;;;;;;;33.07;15.90;;;;;;;;;;5054134;28;20302;-44
2022/11/24 14:25:01;;;;;;;40.97;17.60;;;;;;;;;;5055553;28;20302;-45
2022/11/24 14:27:33;;;;;;;42.27;17.27;;;;;;;;;;5056614;28;20247;-45
2022/11/24 14:30:08;;;;;;;39.20;18.07;;;;;;;;;;5055113;28;20228;-44
2022/11/24 14:32:36;;;;;;;38.07;16.67;;;;;;;;;;5057046;28;20231;-48
2022/11/24 14:35:22;;;;;;;40.17;16.00;;;;;;;;;;5056736;28;20236;-44
2022/11/24 14:37:49;;;;;;;43.47;18.40;;;;;;;;;;5056345;28;20219;-44
2022/11/24 14:40:42;;;;;;;43.60;18.77;;;;;;;;;;5054016;28;20236;-44
2022/11/24 14:43:19;;;;;;;46.53;17.90;;;;;;;;;;5055409;28;20530;-44
2022/11/24 14:45:56;;;;;;;42.03;17.47;;;;;;;;;;5055616;28;20232;-44
2022/11/24 14:48:28;;;;;;;31.13;14.70;;;;;;;;;;5056695;28;20672;-44
2022/11/24 14:51:16;;;;;;;30.83;14.47;;;;;;;;;;5055365;28;20227;-44
2022/11/24 14:53:44;;;;;;;30.00;14.73;;;;;;;;;;5056318;28;20278;-44